Time;durP1;ratioP1;P1;durP2;ratioP2;P2;SDS_P1;SDS_P2;PMS_P1;PMS_P2;Temp;Humidity;BMP_temperature;BMP_pressure;BME280_temperature;BME280_humidity;BME280_pressure;Samples;Min_cycle;Max_cycle;Signal;HPM_P1;HPM_P2
2022/09/09 00:00:21;;;;;;;16.08;3.92;;;15.80;99.90;;;14.83;100.00;100782.13;5249881;22;20300;-74
2022/09/09 00:02:28;;;;;;;15.30;3.20;;;15.70;99.90;;;14.89;100.00;100788.53;5250274;22;20075;-74
2022/09/09 00:04:36;;;;;;;13.95;3.20;;;15.70;99.90;;;14.78;100.00;100778.34;5222327;22;20007;-75
2022/09/09 00:07:03;;;;;;;15.40;2.90;;;15.60;99.90;;;14.75;100.00;100789.34;5222482;22;20003;-74
2022/09/09 00:09:21;;;;;;;15.68;3.15;;;15.50;99.90;;;14.79;100.00;100803.88;5225960;22;20006;-74
2022/09/09 00:11:53;;;;;;;11.90;3.80;;;15.50;99.90;;;14.63;100.00;100793.44;5250107;22;20075;-74
2022/09/09 00:13:56;;;;;;;6.78;2.45;;;15.40;99.90;;;14.68;100.00;100812.31;5227038;22;20094;-74
2022/09/09 00:16:00;;;;;;;14.50;2.72;;;15.40;99.90;;;14.66;100.00;100807.19;5222675;22;20010;-74
2022/09/09 00:18:14;;;;;;;15.40;3.50;;;15.30;99.90;;;14.56;100.00;100782.72;5222426;22;20090;-74
2022/09/09 00:20:25;;;;;;;12.60;2.63;;;15.40;99.90;;;14.61;100.00;100783.00;5196399;22;20091;-74
2022/09/09 00:22:33;;;;;;;15.57;2.92;;;15.40;99.90;;;14.82;100.00;100801.69;5222772;22;20003;-74
2022/09/09 00:25:10;;;;;;;11.27;2.30;;;15.40;99.90;;;14.78;100.00;100781.03;5223785;22;20058;-74
2022/09/09 00:27:40;;;;;;;13.32;2.70;;;15.50;99.90;;;14.84;100.00;100785.59;5222647;22;20011;-74
2022/09/09 00:29:56;;;;;;;13.48;2.80;;;15.60;99.90;;;14.94;100.00;100794.94;5222670;22;20074;-74
2022/09/09 00:32:05;;;;;;;11.40;2.70;;;15.70;99.90;;;14.92;100.00;100780.19;5222484;22;20108;-74
2022/09/09 00:34:21;;;;;;;13.52;3.35;;;15.70;99.90;;;15.09;100.00;100791.44;5222458;22;20003;-74
2022/09/09 00:36:28;;;;;;;7.45;2.08;;;15.80;99.90;;;15.21;100.00;100806.75;5223288;22;20009;-74
2022/09/09 00:38:41;;;;;;;7.20;2.30;;;15.80;99.90;;;15.15;100.00;100794.19;5224336;22;20099;-74
2022/09/09 00:41:02;;;;;;;14.23;2.22;;;15.80;99.90;;;14.97;100.00;100772.50;5223886;22;20450;-74
2022/09/09 00:43:27;;;;;;;11.25;2.85;;;15.80;99.90;;;14.99;100.00;100802.38;5224280;22;20095;-74
2022/09/09 00:46:18;;;;;;;20.02;2.83;;;15.70;99.90;;;14.89;100.00;100807.13;5225820;22;20004;-74
2022/09/09 00:48:23;;;;;;;16.10;2.58;;;15.60;99.90;;;14.72;100.00;100801.16;5224294;22;20007;-74
2022/09/09 00:50:56;;;;;;;14.93;3.45;;;15.50;99.90;;;14.47;100.00;100772.34;5223976;22;20014;-74
2022/09/09 00:53:54;;;;;;;19.63;3.95;;;15.40;99.90;;;14.66;100.00;100806.38;5224299;22;20007;-74
2022/09/09 00:56:28;;;;;;;14.30;2.17;;;15.40;99.90;;;14.54;100.00;100765.34;5224091;22;20003;-74
2022/09/09 00:58:29;;;;;;;14.37;3.27;;;15.40;99.90;;;14.74;100.00;100780.56;5225589;22;20348;-74
2022/09/09 01:00:42;;;;;;;12.80;2.60;;;15.50;99.90;;;14.89;100.00;100783.22;5224360;22;19999;-74
2022/09/09 01:03:08;;;;;;;11.02;3.08;;;15.50;99.90;;;14.96;100.00;100787.59;5224154;22;20010;-74
2022/09/09 01:05:47;;;;;;;13.93;3.97;;;15.60;99.90;;;15.05;100.00;100788.34;5223454;22;20003;-74
2022/09/09 01:07:49;;;;;;;12.18;2.70;;;15.70;99.90;;;14.85;100.00;100768.63;5217965;22;20007;-74
2022/09/09 01:09:59;;;;;;;20.05;4.03;;;15.70;99.90;;;14.81;100.00;100783.31;5224074;22;20003;-74
2022/09/09 01:12:11;;;;;;;14.13;3.30;;;15.60;99.90;;;14.78;100.00;100787.13;5198758;22;20046;-74
2022/09/09 01:14:34;;;;;;;13.82;2.83;;;15.50;99.90;;;14.83;100.00;100791.91;5224105;22;20470;-74
2022/09/09 01:16:35;;;;;;;14.02;2.80;;;15.50;99.90;;;14.58;100.00;100761.28;5225411;22;20035;-74
2022/09/09 01:18:46;;;;;;;15.95;4.53;;;15.40;99.90;;;14.70;100.00;100781.91;5223762;22;20125;-74
2022/09/09 01:21:17;;;;;;;15.68;3.20;;;15.30;99.90;;;14.59;100.00;100763.78;5223448;22;20034;-74
2022/09/09 01:31:42;;;;;;;;;;;;;;;;;;;;;
2022/09/09 01:59:31;;;;;;;;;;;;;;;;;;;;;
2022/09/09 02:27:18;;;;;;;;;;;;;;;;;;;;;
2022/09/09 04:42:43;;;;;;;;;;;;;;;;;;;;;
2022/09/09 06:30:09;;;;;;;;;;;;;;;;;;;;;
2022/09/09 06:35:26;;;;;;;20.08;3.22;;;14.70;99.90;;;14.03;100.00;100905.66;4833503;24;20015;-74
2022/09/09 06:37:27;;;;;;;13.25;2.65;;;14.80;99.90;;;13.96;100.00;100894.09;4887296;23;20023;-74
2022/09/09 06:39:28;;;;;;;14.00;3.03;;;14.80;99.90;;;14.00;100.00;100886.63;5052714;23;20010;-74
2022/09/09 06:41:32;;;;;;;12.48;3.42;;;14.80;99.90;;;14.14;100.00;100904.44;5183305;22;20389;-74
2022/09/09 06:43:34;;;;;;;17.30;4.15;;;14.90;99.90;;;14.17;100.00;100894.28;5223218;22;20003;-74
2022/09/09 06:45:36;;;;;;;15.30;4.07;;;14.90;99.90;;;14.24;100.00;100891.78;5223112;22;20010;-74
2022/09/09 06:47:37;;;;;;;14.82;3.40;;;15.00;99.90;;;14.39;100.00;100914.72;5223043;22;20089;-74
2022/09/09 06:49:38;;;;;;;11.88;3.20;;;15.10;99.90;;;14.34;100.00;100909.13;5222863;22;20011;-74
2022/09/09 06:51:46;;;;;;;14.65;3.40;;;15.10;99.90;;;14.35;100.00;100907.31;5197616;22;20016;-74
2022/09/09 06:53:50;;;;;;;14.18;3.50;;;15.20;99.90;;;14.48;100.00;100920.00;5224846;22;20003;-74
2022/09/09 06:55:51;;;;;;;13.50;2.97;;;15.30;99.90;;;14.36;100.00;100893.06;5223390;22;20427;-74
2022/09/09 06:57:52;;;;;;;14.95;4.00;;;15.30;99.90;;;14.56;100.00;100925.25;5223108;22;20012;-74
2022/09/09 06:59:53;;;;;;;15.90;2.63;;;15.30;99.90;;;14.51;100.00;100898.41;5224478;22;20462;-74
2022/09/09 07:01:54;;;;;;;16.83;3.28;;;15.40;99.90;;;14.56;100.00;100912.81;5222740;22;20057;-74
2022/09/09 07:03:58;;;;;;;14.65;3.33;;;15.40;99.90;;;14.67;100.00;100915.03;5224618;22;20003;-74
2022/09/09 07:05:59;;;;;;;19.80;4.38;;;15.50;99.90;;;14.59;100.00;100898.34;5222750;22;20086;-74
2022/09/09 07:08:01;;;;;;;11.30;4.15;;;15.50;99.90;;;14.72;100.00;100917.16;5224409;22;20280;-74
2022/09/09 07:10:03;;;;;;;13.45;3.13;;;15.50;99.90;;;14.74;100.00;100910.66;5224472;22;20084;-74
2022/09/09 07:12:06;;;;;;;9.18;2.38;;;15.50;99.90;;;14.71;100.00;100904.88;5198036;22;20404;-74
2022/09/09 07:14:07;;;;;;;9.80;2.72;;;15.60;99.90;;;14.74;100.00;100899.22;5197711;22;20359;-74
2022/09/09 07:16:16;;;;;;;16.17;3.00;;;15.60;99.90;;;14.92;100.00;100918.31;5224638;22;20003;-74
2022/09/09 07:18:17;;;;;;;14.48;3.35;;;15.70;99.90;;;14.86;100.00;100900.44;5223165;22;20458;-74
2022/09/09 07:20:18;;;;;;;18.95;3.20;;;15.70;99.90;;;14.96;100.00;100909.00;5223910;22;20031;-74
2022/09/09 07:22:20;;;;;;;15.52;3.45;;;15.80;99.90;;;15.09;100.00;100925.13;5222818;22;20388;-74
2022/09/09 07:24:20;;;;;;;11.88;3.25;;;15.80;99.90;;;15.07;100.00;100915.69;5197134;22;20352;-74
2022/09/09 07:26:28;;;;;;;16.50;3.00;;;15.90;99.90;;;15.26;100.00;100947.06;5224338;22;19999;-74
2022/09/09 07:28:30;;;;;;;9.57;2.83;;;15.90;99.90;;;15.24;100.00;100941.91;5245937;22;20011;-74
2022/09/09 07:30:31;;;;;;;14.52;3.40;;;16.00;99.90;;;15.29;100.00;100928.91;5222307;22;20033;-75
2022/09/09 07:32:33;;;;;;;12.90;2.90;;;16.00;99.90;;;15.37;100.00;100943.94;5222419;22;20011;-74
2022/09/09 07:34:34;;;;;;;15.38;3.28;;;16.10;99.90;;;15.29;100.00;100926.25;5249990;22;20014;-74
2022/09/09 07:36:38;;;;;;;12.90;3.35;;;16.10;99.90;;;15.44;100.00;100943.03;5222826;22;20027;-74
2022/09/09 07:38:45;;;;;;;12.27;3.17;;;16.20;99.90;;;15.56;100.00;100943.41;5223353;22;20008;-75
2022/09/09 07:40:46;;;;;;;13.60;2.90;;;16.30;99.90;;;15.54;100.00;100939.31;5250205;22;20002;-74
2022/09/09 07:42:48;;;;;;;19.75;3.95;;;16.30;99.90;;;15.73;100.00;100960.03;5197164;22;20003;-74
2022/09/09 07:44:49;;;;;;;12.13;2.95;;;16.40;99.90;;;15.79;100.00;100951.31;5222099;22;20003;-74
2022/09/09 07:46:50;;;;;;;8.18;2.70;;;16.50;99.90;;;15.75;100.00;100936.72;5250370;22;20048;-74
2022/09/09 07:48:54;;;;;;;16.67;2.83;;;16.50;99.90;;;15.84;100.00;100938.28;5222798;22;20390;-74
2022/09/09 07:51:18;;;;;;;;;;;16.60;99.90;;;15.94;100.00;100938.84;5222862;22;20399;-74
2022/09/09 07:53:19;;;;;;;13.75;3.28;;;16.70;99.90;;;15.89;100.00;100936.72;5250116;22;19902;-74
2022/09/09 07:55:25;;;;;;;12.93;3.10;;;16.70;99.90;;;15.95;100.00;100938.63;5197235;22;20012;-74
2022/09/09 07:57:26;;;;;;;13.88;2.35;;;16.80;99.90;;;16.11;100.00;100950.91;5250142;22;20007;-74
2022/09/09 07:59:27;;;;;;;12.75;2.95;;;16.80;99.90;;;16.15;100.00;100954.84;5222429;22;20003;-74
2022/09/09 08:01:32;;;;;;;12.63;2.67;;;16.90;99.90;;;16.16;100.00;100950.38;5250043;22;19999;-74
2022/09/09 08:03:33;;;;;;;23.75;3.63;;;16.90;99.90;;;16.21;100.00;100953.28;5250070;22;20006;-74
2022/09/09 08:05:34;;;;;;;16.88;2.97;;;17.00;99.90;;;16.45;100.00;100966.25;5249687;22;20003;-74
2022/09/09 08:07:35;;;;;;;14.10;3.63;;;17.10;99.90;;;16.49;100.00;100952.34;5250004;22;20094;-74
2022/09/09 08:09:36;;;;;;;10.93;2.72;;;17.20;99.90;;;16.76;100.00;100973.94;5222620;22;20003;-74
2022/09/09 08:11:39;;;;;;;12.73;1.98;;;17.40;99.90;;;16.65;100.00;100939.84;5249977;22;20014;-74
2022/09/09 08:13:42;;;;;;;9.90;2.22;;;17.50;99.90;;;16.72;100.00;100956.72;5222308;22;20003;-74
2022/09/09 08:15:44;;;;;;;11.00;2.50;;;17.50;99.90;;;16.78;100.00;100975.44;5250076;22;20007;-74
2022/09/09 08:17:45;;;;;;;15.30;3.35;;;17.50;99.90;;;16.64;100.00;100955.00;5249898;22;20003;-74
2022/09/09 08:19:46;;;;;;;10.23;2.92;;;17.60;99.90;;;16.71;100.00;100958.56;5249374;22;20053;-74
2022/09/09 08:21:48;;;;;;;13.65;2.47;;;17.50;99.90;;;16.83;100.00;100969.53;5249786;22;20003;-74
2022/09/09 08:23:52;;;;;;;11.52;2.80;;;17.60;99.90;;;16.73;100.00;100959.19;5222864;22;20412;-74
2022/09/09 08:25:53;;;;;;;10.02;2.45;;;17.60;99.90;;;16.66;100.00;100952.16;5222474;22;20007;-74
2022/09/09 08:27:55;;;;;;;11.93;2.13;;;17.60;99.90;;;16.91;100.00;100980.03;5222032;22;20016;-74
2022/09/09 08:29:56;;;;;;;12.80;2.25;;;17.60;99.90;;;16.81;100.00;100980.38;5249897;22;20010;-74
2022/09/09 08:31:58;;;;;;;11.85;2.05;;;17.60;99.90;;;16.79;100.00;100978.91;5249911;22;20462;-74
2022/09/09 08:34:03;;;;;;;8.77;1.80;;;17.50;99.90;;;16.78;100.00;100996.75;5196953;22;20351;-74
2022/09/09 08:36:06;;;;;;;9.27;2.13;;;17.60;99.90;;;16.88;100.00;100983.91;5222937;22;20018;-74
2022/09/09 08:38:07;;;;;;;13.52;2.20;;;17.60;99.90;;;16.89;100.00;100976.75;5222450;22;20336;-74
2022/09/09 08:40:22;;;;;;;9.18;2.13;;;17.70;99.90;;;16.90;100.00;100973.09;5249727;22;20010;-74
2022/09/09 08:42:49;;;;;;;14.45;2.65;;;17.80;99.90;;;17.07;100.00;100974.44;5223677;22;20003;-74
2022/09/09 08:44:56;;;;;;;11.98;2.00;;;17.90;99.90;;;17.18;100.00;101008.56;5222332;22;20007;-74
2022/09/09 08:47:22;;;;;;;8.02;1.98;;;18.00;99.90;;;17.30;100.00;101012.38;5249747;22;20079;-74
2022/09/09 08:49:35;;;;;;;9.50;1.98;;;18.00;99.90;;;17.39;100.00;101008.53;5249570;22;20056;-74
2022/09/09 08:51:36;;;;;;;8.45;2.08;;;18.10;99.90;;;17.31;100.00;100995.38;5249967;22;20078;-74
2022/09/09 08:53:48;;;;;;;8.55;1.70;;;18.10;99.90;;;17.42;100.00;101004.66;5222391;22;20004;-74
2022/09/09 08:55:59;;;;;;;8.63;1.98;;;18.20;99.90;;;17.54;100.00;101019.13;5197005;22;20003;-74
2022/09/09 08:58:20;;;;;;;12.60;2.38;;;18.20;99.90;;;17.47;99.83;100989.72;5224774;22;20007;-74
2022/09/09 09:00:24;;;;;;;8.95;2.33;;;18.30;99.90;;;17.57;98.68;100994.75;5224191;22;20004;-74
2022/09/09 09:02:49;;;;;;;11.10;2.08;;;18.40;99.90;;;17.68;98.42;101016.38;5223944;22;20004;-74
2022/09/09 09:05:06;;;;;;;13.90;2.70;;;18.50;99.90;;;17.50;98.87;100989.34;5223638;22;20003;-74
2022/09/09 09:07:43;;;;;;;5.78;1.70;;;18.50;99.90;;;17.76;99.00;100998.56;5199650;22;20010;-74
2022/09/09 09:09:59;;;;;;;11.98;3.40;;;18.70;99.90;;;18.29;96.98;101023.69;5200323;22;20017;-74
2022/09/09 09:12:02;;;;;;;11.23;2.08;;;18.90;99.90;;;18.38;93.95;101012.63;5251578;22;20495;-74
2022/09/09 09:14:24;;;;;;;8.57;2.47;;;19.10;99.90;;;18.20;93.38;100999.00;5197931;22;20004;-74
2022/09/09 09:16:41;;;;;;;8.30;2.42;;;19.20;99.90;;;18.43;96.97;101023.53;5251376;22;20066;-74
2022/09/09 09:18:42;;;;;;;8.50;2.33;;;19.20;99.90;;;18.29;96.18;101032.50;5251179;22;20010;-74
2022/09/09 09:21:00;;;;;;;10.25;2.33;;;19.10;99.90;;;18.22;91.53;101020.97;5223262;22;20018;-75
2022/09/09 09:23:04;;;;;;;8.80;2.03;;;19.10;99.90;;;18.05;92.60;100999.13;5223682;22;20078;-74
2022/09/09 09:25:31;;;;;;;11.90;2.20;;;19.10;99.90;;;18.13;90.09;100998.13;5250929;22;20003;-74
2022/09/09 09:27:58;;;;;;;10.07;2.22;;;19.10;99.90;;;18.12;92.10;101008.00;5250857;22;20006;-74
2022/09/09 09:30:12;;;;;;;8.23;1.38;;;19.10;99.90;;;18.31;94.31;101009.09;5226274;22;20056;-74
2022/09/09 09:32:19;;;;;;;8.98;2.20;;;19.10;99.90;;;18.48;90.22;101012.25;5226295;22;20080;-74
2022/09/09 09:34:20;;;;;;;12.48;1.90;;;19.40;99.90;;;18.56;87.56;101015.59;5198209;22;20012;-74
2022/09/09 09:36:39;;;;;;;8.52;1.83;;;19.40;99.90;;;18.76;89.39;101016.47;5251145;22;20335;-74
2022/09/09 09:38:39;;;;;;;6.25;1.50;;;19.50;99.90;;;18.71;87.44;101012.75;5251124;22;20127;-74
2022/09/09 09:40:51;;;;;;;5.15;1.60;;;19.60;99.90;;;19.09;87.53;101029.03;5223889;22;20011;-74
2022/09/09 09:43:00;;;;;;;6.40;1.75;;;19.70;99.90;;;19.17;86.51;101031.53;5250962;22;19998;-74
2022/09/09 09:45:35;;;;;;;14.00;2.83;;;19.90;99.90;;;19.26;84.56;101016.94;5198419;22;20073;-74
2022/09/09 09:47:36;;;;;;;8.68;1.88;;;20.00;99.90;;;19.30;83.52;101031.53;5225504;22;20000;-75
2022/09/09 09:49:37;;;;;;;6.78;1.38;;;20.10;99.90;;;19.24;82.20;101016.31;5250572;22;20057;-74
2022/09/09 09:51:38;;;;;;;7.70;2.05;;;20.10;99.90;;;19.18;80.67;101015.28;5251179;22;20007;-74
2022/09/09 09:53:39;;;;;;;4.68;1.10;;;20.20;99.90;;;19.21;80.19;101017.53;5223831;22;20035;-74
2022/09/09 09:55:54;;;;;;;8.25;1.95;;;20.20;99.90;;;19.66;80.41;101031.13;5223818;22;20362;-74
2022/09/09 09:58:03;;;;;;;6.95;1.42;;;20.40;99.90;;;20.16;79.05;101018.88;5198409;22;20038;-74
2022/09/09 10:00:21;;;;;;;8.00;1.33;;;20.80;99.90;;;20.72;76.12;101043.16;5223767;22;20041;-74
2022/09/09 10:02:25;;;;;;;7.05;1.88;;;21.20;99.90;;;20.49;72.92;101011.50;5223840;22;20003;-74
2022/09/09 10:04:26;;;;;;;6.03;1.00;;;21.40;99.90;;;20.58;73.53;101031.66;5250460;22;20003;-74
2022/09/09 10:06:37;;;;;;;8.52;1.65;;;21.50;99.90;;;20.53;74.67;101018.09;5223561;22;20021;-74
2022/09/09 10:08:48;;;;;;;7.03;1.20;;;21.60;99.90;;;21.15;75.01;101043.31;5250828;22;20003;-74
2022/09/09 10:11:42;;;;;;;4.65;1.02;;;21.80;99.90;;;21.54;71.28;101048.34;5223171;22;20007;-74
2022/09/09 10:14:30;;;;;;;7.10;1.20;;;22.10;99.90;;;21.69;72.13;101048.00;5250767;22;20011;-74
2022/09/09 10:17:11;;;;;;;5.78;1.65;;;22.40;99.90;;;21.67;71.26;101048.25;5097377;23;20013;-74
2022/09/09 10:19:35;;;;;;;3.33;1.13;;;22.50;99.90;;;21.45;70.01;101038.94;5207834;22;20039;-74
2022/09/09 10:22:03;;;;;;;6.57;1.50;;;22.50;99.90;;;21.50;71.19;101020.34;5225068;22;20010;-75
2022/09/09 10:24:50;;;;;;;4.03;0.80;;;22.50;99.90;;;21.89;72.76;101052.19;5224861;22;20007;-75
2022/09/09 10:27:19;;;;;;;5.38;1.27;;;22.70;99.90;;;21.56;70.58;101059.72;5224824;22;20471;-74
2022/09/09 10:30:02;;;;;;;4.55;1.00;;;22.60;99.90;;;21.22;71.68;101054.81;5197627;22;20043;-74
2022/09/09 10:32:21;;;;;;;4.72;1.00;;;22.40;99.90;;;21.53;69.92;101052.91;5225161;22;20008;-74
2022/09/09 10:34:55;;;;;;;6.97;1.48;;;22.40;99.90;;;21.74;70.27;101049.00;5224361;22;20331;-74
2022/09/09 10:36:56;;;;;;;3.40;1.20;;;22.40;99.90;;;21.47;70.62;101044.94;5225015;22;20008;-74
2022/09/09 10:39:40;;;;;;;6.03;1.52;;;22.40;99.90;;;21.27;71.37;101036.19;5197534;22;20014;-75
2022/09/09 10:42:08;;;;;;;8.57;1.35;;;22.30;99.90;;;20.88;71.13;101043.47;5199494;22;20003;-74
2022/09/09 10:44:42;;;;;;;5.53;1.20;;;22.10;99.90;;;20.74;73.62;101041.91;5224807;22;20003;-74
2022/09/09 10:47:17;;;;;;;8.98;2.00;;;21.80;99.90;;;20.51;76.02;101049.66;5175445;22;20061;-74
2022/09/09 10:49:50;;;;;;;6.53;1.73;;;21.60;99.90;;;20.45;76.17;101068.44;5224415;22;20003;-74
2022/09/09 10:52:48;;;;;;;4.65;1.17;;;21.40;99.90;;;20.20;77.91;101055.72;5224655;22;20008;-74
2022/09/09 10:55:08;;;;;;;6.70;1.50;;;21.30;99.90;;;19.96;76.26;101034.16;5197379;22;20007;-75
2022/09/09 10:57:31;;;;;;;6.03;1.88;;;21.20;99.90;;;20.33;77.65;101071.78;5224594;22;20057;-74
2022/09/09 10:59:40;;;;;;;7.20;2.13;;;21.20;99.90;;;19.98;77.33;101056.22;5197535;22;20042;-74
2022/09/09 11:01:55;;;;;;;8.77;1.55;;;21.20;99.90;;;19.75;81.08;101067.34;5224446;22;20007;-75
2022/09/09 11:04:33;;;;;;;5.47;1.45;;;20.90;99.90;;;20.04;82.00;101092.88;5224213;22;20078;-74
2022/09/09 11:06:44;;;;;;;5.68;0.90;;;20.90;99.90;;;19.75;82.95;101072.72;5176564;22;20007;-74
2022/09/09 11:08:47;;;;;;;4.45;1.38;;;20.80;99.90;;;19.84;81.94;101055.41;5198101;22;20031;-74
2022/09/09 11:11:04;;;;;;;7.72;1.02;;;20.80;99.90;;;20.12;83.20;101081.91;5224562;22;20007;-74
2022/09/09 11:13:31;;;;;;;8.02;1.63;;;20.90;99.90;;;20.06;83.53;101059.47;5171851;23;20008;-75
2022/09/09 11:15:43;;;;;;;8.02;1.60;;;20.90;99.90;;;19.84;84.53;101060.75;5199899;22;20035;-74
2022/09/09 11:17:56;;;;;;;6.18;1.25;;;20.80;99.90;;;19.57;86.38;101062.63;5172657;22;20099;-74
2022/09/09 11:19:58;;;;;;;5.83;1.33;;;20.70;99.90;;;19.22;88.35;101066.50;5196953;22;20060;-74
2022/09/09 11:22:00;;;;;;;5.75;1.50;;;20.40;99.90;;;19.48;88.30;101095.97;5197348;22;20336;-74
2022/09/09 11:24:13;;;;;;;7.25;1.77;;;20.40;99.90;;;19.48;89.18;101047.00;5224493;22;20035;-74
2022/09/09 11:26:37;;;;;;;5.78;1.52;;;20.60;99.90;;;20.16;86.41;101069.75;5197781;22;20004;-74
2022/09/09 11:28:40;;;;;;;5.38;1.02;;;20.90;99.90;;;20.48;85.66;101076.88;5198196;22;20012;-74
2022/09/09 11:31:11;;;;;;;4.50;1.05;;;21.20;99.90;;;20.97;83.14;101070.84;5224298;22;20007;-74
2022/09/09 11:33:41;;;;;;;9.07;1.10;;;21.60;99.90;;;21.33;80.85;101086.31;5224336;22;20003;-74
2022/09/09 11:36:19;;;;;;;5.72;1.00;;;21.90;99.90;;;20.96;79.65;101061.16;5223901;22;20057;-74
2022/09/09 11:38:29;;;;;;;4.35;1.23;;;22.10;99.90;;;21.08;82.33;101074.72;5224332;22;20010;-74
2022/09/09 11:40:32;;;;;;;4.82;1.60;;;22.00;99.90;;;20.84;80.99;101055.69;5224335;22;20014;-75
2022/09/09 11:42:33;;;;;;;9.60;1.93;;;22.00;99.90;;;20.51;81.11;101062.25;5171902;22;20027;-74
2022/09/09 11:44:34;;;;;;;7.15;1.63;;;21.80;99.90;;;19.81;82.22;101079.91;5197121;22;20371;-74
2022/09/09 11:46:39;;;;;;;3.95;0.80;;;21.50;99.90;;;20.10;81.99;101070.59;5197183;22;20087;-74
2022/09/09 11:48:45;;;;;;;5.25;1.02;;;21.20;99.90;;;20.28;81.46;101087.66;5147050;22;20480;-74
2022/09/09 11:50:57;;;;;;;7.40;1.15;;;21.20;99.90;;;20.37;81.30;101072.16;5197198;22;20007;-74
2022/09/09 11:53:13;;;;;;;6.22;0.98;;;21.20;99.90;;;20.68;81.40;101096.38;5199538;22;20008;-74
2022/09/09 11:55:32;;;;;;;4.03;1.20;;;21.40;99.90;;;20.30;79.83;101076.75;5224273;22;20042;-74
2022/09/09 11:57:36;;;;;;;5.38;1.40;;;21.40;99.90;;;20.70;79.55;101061.31;5224133;22;20013;-74
2022/09/09 11:59:37;;;;;;;6.55;1.27;;;21.50;99.90;;;20.63;77.77;101074.75;5197059;22;20379;-74
2022/09/09 12:01:45;;;;;;;3.22;0.90;;;21.70;99.90;;;20.45;79.91;101081.84;5224262;22;19999;-74
2022/09/09 12:04:01;;;;;;;3.50;1.42;;;21.70;99.90;;;20.48;77.39;101084.09;5196889;22;20521;-74
2022/09/09 12:06:31;;;;;;;4.88;1.02;;;21.60;99.90;;;20.56;77.63;101106.13;5224170;22;20003;-74
2022/09/09 12:08:36;;;;;;;3.60;1.30;;;21.60;99.90;;;20.36;76.71;101091.97;5197340;22;20110;-74
2022/09/09 12:10:39;;;;;;;2.95;0.63;;;21.50;99.90;;;20.19;77.44;101080.84;5224017;22;20427;-74
2022/09/09 12:12:40;;;;;;;3.85;0.90;;;21.50;99.90;;;20.05;78.20;101073.91;5224105;22;20037;-74
2022/09/09 12:14:41;;;;;;;3.85;1.15;;;21.40;99.90;;;20.49;76.23;101091.91;5224108;22;20003;-74
2022/09/09 12:16:42;;;;;;;2.30;0.70;;;21.50;99.90;;;20.90;76.93;101084.31;5223963;22;20007;-74
2022/09/09 12:18:45;;;;;;;4.80;1.13;;;21.70;99.90;;;21.05;75.54;101075.16;5171417;23;20062;-74
2022/09/09 12:21:12;;;;;;;3.10;0.90;;;22.00;99.90;;;21.28;76.96;101116.50;5223787;22;20004;-74
2022/09/09 12:23:52;;;;;;;2.67;0.63;;;22.10;99.90;;;21.07;76.70;101086.47;5224139;22;19999;-74
2022/09/09 12:26:20;;;;;;;4.10;0.75;;;22.20;99.90;;;21.08;76.08;101082.75;5197010;22;20003;-74
2022/09/09 12:28:57;;;;;;;1.65;0.43;;;22.20;99.90;;;20.94;77.23;101100.78;5196828;22;20371;-74
2022/09/09 12:31:17;;;;;;;3.08;0.50;;;22.00;99.90;;;20.83;77.51;101093.41;5198724;22;20087;-74
2022/09/09 12:33:19;;;;;;;1.92;0.70;;;22.00;99.90;;;20.68;79.00;101112.47;5198319;22;20033;-74
2022/09/09 12:35:28;;;;;;;2.88;0.68;;;21.90;99.90;;;20.43;78.42;101088.22;5196134;22;20027;-74
2022/09/09 12:37:58;;;;;;;2.05;0.70;;;21.70;99.90;;;20.58;79.77;101089.84;5198525;22;20011;-74
2022/09/09 12:40:03;;;;;;;2.83;0.70;;;21.70;99.90;;;20.79;76.89;101097.56;5196870;22;20019;-74
2022/09/09 12:42:05;;;;;;;5.32;1.08;;;21.70;99.90;;;20.74;75.61;101074.09;5196900;22;20034;-74
2022/09/09 12:44:07;;;;;;;4.65;1.08;;;21.80;99.90;;;;;;5198548;22;20010;-74
2022/09/09 12:46:26;;;;;;;5.05;1.00;;;21.80;99.90;;;21.27;75.97;101105.97;5196758;22;20004;-74
2022/09/09 12:48:41;;;;;;;5.78;1.15;;;21.90;99.90;;;20.89;77.01;101103.28;5196659;22;20007;-74
2022/09/09 12:50:52;;;;;;;4.55;1.00;;;21.80;99.90;;;20.36;79.17;101091.97;5171824;22;20020;-74
2022/09/09 12:53:10;;;;;;;3.95;0.68;;;21.50;99.90;;;20.61;79.61;101100.13;5196965;22;20410;-74
2022/09/09 12:55:29;;;;;;;9.20;1.00;;;21.40;99.90;;;20.40;81.79;101082.47;5196872;22;20045;-74
2022/09/09 12:57:37;;;;;;;6.25;1.20;;;21.40;99.90;;;20.52;80.91;101083.44;5171470;22;20039;-74
2022/09/09 12:59:42;;;;;;;6.50;1.17;;;21.40;99.90;;;20.92;80.78;101101.00;5196673;22;20513;-74
2022/09/09 13:01:43;;;;;;;4.70;1.20;;;21.60;99.90;;;21.24;78.40;101087.63;5198362;22;20004;-74
2022/09/09 13:03:45;;;;;;;4.35;1.65;;;22.00;99.90;;;21.43;75.25;101084.81;5198433;22;20075;-74
2022/09/09 13:05:46;;;;;;;5.43;1.10;;;22.30;99.90;;;21.43;73.25;101089.34;5196369;22;20007;-74
2022/09/09 13:07:48;;;;;;;6.68;2.28;;;22.50;99.90;;;21.53;74.65;101100.44;5196798;22;20026;-74
2022/09/09 13:09:49;;;;;;;5.60;1.30;;;22.40;99.90;;;21.38;74.44;101091.88;5197078;22;20071;-74
2022/09/09 13:11:56;;;;;;;5.47;1.13;;;22.40;99.90;;;21.15;75.68;101084.38;5198184;22;20011;-74
2022/09/09 13:13:59;;;;;;;4.70;1.30;;;22.30;99.90;;;21.21;76.38;101099.59;5196655;22;20011;-74
2022/09/09 13:16:01;;;;;;;3.35;0.70;;;22.30;99.90;;;21.48;76.29;101089.50;5197228;22;20015;-74
2022/09/09 13:18:12;;;;;;;4.43;1.00;;;22.40;99.90;;;21.44;73.44;101091.78;5196797;22;20027;-74
2022/09/09 13:20:20;;;;;;;3.42;0.85;;;22.40;99.90;;;21.23;75.36;101084.13;5196473;22;20008;-74
2022/09/09 13:22:38;;;;;;;3.25;0.73;;;22.30;99.90;;;20.92;73.99;101076.88;5196693;22;20000;-74
2022/09/09 13:24:39;;;;;;;3.65;1.17;;;22.10;99.90;;;20.93;75.48;101081.19;5196989;22;20003;-74
2022/09/09 13:26:40;;;;;;;4.47;1.05;;;21.90;99.90;;;20.83;80.42;101077.34;5196489;22;20058;-74
2022/09/09 13:28:41;;;;;;;3.22;1.23;;;21.80;99.90;;;20.73;78.44;101077.78;5196994;22;20056;-74
2022/09/09 13:30:43;;;;;;;4.25;1.50;;;21.70;99.90;;;20.72;76.12;101089.56;5196863;22;20054;-74
2022/09/09 13:32:44;;;;;;;3.58;0.70;;;21.60;99.90;;;20.36;75.84;101087.44;5170849;22;20012;-74
2022/09/09 13:35:00;;;;;;;3.47;0.73;;;21.50;99.90;;;20.16;79.13;101083.16;5198231;22;20008;-74
2022/09/09 13:37:06;;;;;;;2.50;0.70;;;21.20;99.90;;;20.68;78.62;101109.78;5196575;22;20030;-74
2022/09/09 13:39:20;;;;;;;5.65;1.75;;;21.40;99.90;;;21.20;75.64;101089.09;5196469;22;20004;-74
2022/09/09 13:41:46;;;;;;;3.33;1.00;;;21.80;99.90;;;21.65;74.00;101112.09;5198068;22;20000;-74
2022/09/09 13:43:48;;;;;;;4.32;1.15;;;22.30;99.90;;;21.79;71.17;101094.81;5191866;22;20007;-74
2022/09/09 13:46:04;;;;;;;6.88;1.27;;;22.50;99.90;;;21.84;69.94;101088.78;5198226;22;20073;-74
2022/09/09 13:48:11;;;;;;;6.72;1.15;;;22.70;99.90;;;21.59;71.83;101102.25;5198196;22;20478;-75
2022/09/09 13:50:38;;;;;;;5.50;1.20;;;22.50;99.90;;;21.34;71.67;101085.28;5172334;22;20487;-74
2022/09/09 13:52:40;;;;;;;5.28;1.40;;;22.30;99.90;;;20.88;72.40;101091.72;5195279;22;20011;-74
2022/09/09 13:54:41;;;;;;;7.22;1.27;;;22.10;99.90;;;20.76;72.61;101088.09;5199517;22;20078;-74
2022/09/09 13:56:43;;;;;;;5.43;1.60;;;21.80;99.90;;;20.75;74.46;101081.09;5197988;22;20034;-74
2022/09/09 13:58:44;;;;;;;4.93;1.58;;;21.70;99.90;;;20.77;76.28;101089.75;5198117;22;20474;-74
2022/09/09 14:00:46;;;;;;;7.35;2.00;;;21.70;99.90;;;20.87;73.46;101071.34;5197932;22;20008;-74
2022/09/09 14:02:48;;;;;;;4.18;1.30;;;21.70;99.90;;;21.04;75.71;101081.53;5198012;22;20007;-74
2022/09/09 14:04:50;;;;;;;5.65;1.20;;;21.80;99.90;;;21.25;75.53;101065.94;5197946;22;20008;-74
2022/09/09 14:06:51;;;;;;;5.28;1.30;;;21.90;99.90;;;21.33;72.54;101108.59;5199523;22;20000;-74
2022/09/09 14:08:54;;;;;;;5.85;1.27;;;22.00;99.90;;;20.78;70.20;101080.66;5199657;22;20375;-74
2022/09/09 14:10:55;;;;;;;4.43;0.93;;;21.80;99.90;;;20.70;70.48;101083.56;5199388;22;20003;-74